createdAt,value
2022-08-30T00:00:17.617Z,16.87
2022-08-30T00:05:37.922Z,16.86
2022-08-30T00:10:43.336Z,16.86
2022-08-30T00:15:47.377Z,16.87
2022-08-30T00:20:51.642Z,16.85
2022-08-30T00:25:55.264Z,16.88
2022-08-30T00:30:58.689Z,16.89
2022-08-30T00:36:02.192Z,16.86
2022-08-30T00:41:05.602Z,16.88
2022-08-30T00:46:10.620Z,16.88
2022-08-30T00:51:15.808Z,16.90
2022-08-30T00:56:19.736Z,16.88
2022-08-30T01:01:23.107Z,16.96
2022-08-30T01:06:26.765Z,16.95
2022-08-30T01:11:38.327Z,16.90
2022-08-30T01:16:44.286Z,16.90
2022-08-30T01:21:52.979Z,16.93
2022-08-30T01:26:56.904Z,16.92
2022-08-30T01:32:00.420Z,16.92
2022-08-30T01:37:03.833Z,16.90
2022-08-30T01:42:07.451Z,16.89
2022-08-30T01:47:11.683Z,16.88
2022-08-30T01:52:16.427Z,16.90
2022-08-30T01:57:23.848Z,16.89
2022-08-30T02:02:29.760Z,16.88
2022-08-30T02:07:33.735Z,16.85
2022-08-30T02:12:36.941Z,16.85
2022-08-30T02:17:42.094Z,16.81
2022-08-30T02:22:49.159Z,16.80
2022-08-30T02:27:53.018Z,16.85
2022-08-30T02:32:56.430Z,16.89
2022-08-30T02:37:59.741Z,16.89
2022-08-30T02:43:03.565Z,16.84
2022-08-30T02:48:06.977Z,16.85
2022-08-30T02:53:10.696Z,16.85
2022-08-30T02:58:19.435Z,16.85
2022-08-30T03:03:23.305Z,16.84
2022-08-30T03:08:26.772Z,16.84
2022-08-30T03:13:30.801Z,16.80
2022-08-30T03:18:34.423Z,16.79
2022-08-30T03:23:38.037Z,16.84
2022-08-30T03:28:43.487Z,16.88
2022-08-30T03:33:46.808Z,16.82
2022-08-30T03:38:50.325Z,16.72
2022-08-30T03:43:53.941Z,16.62
2022-08-30T03:49:04.830Z,16.55
2022-08-30T03:54:08.243Z,16.49
2022-08-30T03:59:11.553Z,16.41
2022-08-30T04:04:20.561Z,16.34
2022-08-30T04:09:25.342Z,16.31
2022-08-30T04:14:28.754Z,16.29
2022-08-30T04:19:32.066Z,16.30
2022-08-30T04:24:35.331Z,16.31
2022-08-30T04:29:38.891Z,16.34
2022-08-30T04:34:42.204Z,16.36
2022-08-30T04:39:46.947Z,16.38
2022-08-30T04:44:51.283Z,16.43
2022-08-30T04:49:54.804Z,16.47
2022-08-30T04:54:59.395Z,16.53
2022-08-30T05:00:04.342Z,16.64
2022-08-30T05:05:27.872Z,16.71
2022-08-30T05:10:31.388Z,16.80
2022-08-30T05:15:35.213Z,16.76
2022-08-30T05:20:39.444Z,16.83
2022-08-30T05:25:43.576Z,16.99
2022-08-30T05:30:47.703Z,17.13
2022-08-30T05:35:51.016Z,17.06
2022-08-30T05:40:54.324Z,16.97
2022-08-30T05:46:06.798Z,16.86
2022-08-30T05:51:14.873Z,16.82
2022-08-30T05:56:21.728Z,16.77
2022-08-30T06:01:32.318Z,16.75
2022-08-30T06:06:38.407Z,16.75
2022-08-30T06:11:43.475Z,16.81
2022-08-30T06:16:47.504Z,16.85
2022-08-30T06:21:52.463Z,16.79
2022-08-30T06:26:56.175Z,16.81
2022-08-30T06:31:59.691Z,17.07
2022-08-30T06:37:03.102Z,17.43
2022-08-30T06:42:06.414Z,17.45
2022-08-30T06:47:09.724Z,17.61
2022-08-30T06:52:13.034Z,17.64
2022-08-30T06:57:16.755Z,17.67
2022-08-30T07:02:20.065Z,17.78
2022-08-30T07:07:23.684Z,17.92
2022-08-30T07:12:27.073Z,18.07
2022-08-30T07:17:49.864Z,18.07
2022-08-30T07:22:53.508Z,17.96
2022-08-30T07:27:57.512Z,17.92
2022-08-30T07:33:01.027Z,17.86
2022-08-30T07:38:04.336Z,17.93
2022-08-30T07:43:07.749Z,18.27
2022-08-30T07:48:13.322Z,18.61
2022-08-30T07:53:16.811Z,18.94
2022-08-30T07:58:21.163Z,18.99
2022-08-30T08:03:24.578Z,19.06
2022-08-30T08:08:29.256Z,19.03
2022-08-30T08:13:32.640Z,19.01
2022-08-30T08:18:36.146Z,18.88
2022-08-30T08:23:39.457Z,18.72
2022-08-30T08:28:47.240Z,18.45
2022-08-30T08:33:50.659Z,18.01
2022-08-30T08:38:54.210Z,17.68
2022-08-30T08:43:57.822Z,17.44
2022-08-30T08:49:07.824Z,17.29
2022-08-30T08:54:13.921Z,17.10
2022-08-30T08:59:18.104Z,17.14
2022-08-30T09:04:31.103Z,17.36
2022-08-30T09:09:40.501Z,17.48
2022-08-30T09:14:55.391Z,17.56
2022-08-30T09:20:00.484Z,17.67
2022-08-30T09:25:07.317Z,17.80
2022-08-30T09:30:14.742Z,18.00
2022-08-30T09:35:49.166Z,18.25
2022-08-30T09:40:54.418Z,18.15
2022-08-30T09:46:00.620Z,17.88
2022-08-30T09:51:15.909Z,18.11
2022-08-30T09:56:38.144Z,18.22
2022-08-30T10:01:53.742Z,18.30
2022-08-30T10:07:28.993Z,18.21
2022-08-30T10:12:50.444Z,18.10
2022-08-30T10:18:15.711Z,18.13
2022-08-30T10:23:26.143Z,18.06
2022-08-30T10:28:46.787Z,18.16
2022-08-30T10:33:56.212Z,18.04
2022-08-30T10:39:01.675Z,18.00
2022-08-30T10:44:19.767Z,18.03
2022-08-30T10:49:25.976Z,18.20
2022-08-30T10:54:43.246Z,18.49
2022-08-30T10:59:56.235Z,18.61
2022-08-30T11:05:08.642Z,18.59
2022-08-30T11:10:36.085Z,18.70
2022-08-30T11:16:01.001Z,18.56
2022-08-30T11:21:37.123Z,18.45
2022-08-30T11:26:46.229Z,18.56
2022-08-30T11:31:49.540Z,18.52
2022-08-30T11:36:52.850Z,18.60
2022-08-30T11:42:36.404Z,18.48
2022-08-30T11:47:45.656Z,18.45
2022-08-30T11:52:59.906Z,18.40
2022-08-30T11:58:28.011Z,18.30
2022-08-30T12:03:35.123Z,18.34
2022-08-30T12:08:45.699Z,18.37
2022-08-30T12:13:55.766Z,18.32
2022-08-30T12:19:13.789Z,18.42
2022-08-30T12:24:23.788Z,18.60
2022-08-30T12:29:31.913Z,18.47
2022-08-30T12:34:40.956Z,18.24
2022-08-30T12:39:45.091Z,18.05
2022-08-30T12:44:52.144Z,17.87
2022-08-30T12:49:59.222Z,17.70
2022-08-30T12:55:22.984Z,17.55
2022-08-30T13:00:35.165Z,17.45
2022-08-30T13:05:44.479Z,17.24
2022-08-30T13:11:08.297Z,17.22
2022-08-30T13:16:18.082Z,17.40
2022-08-30T13:21:34.620Z,17.42
2022-08-30T13:26:41.309Z,17.35
2022-08-30T13:31:45.920Z,17.28
2022-08-30T13:36:58.165Z,17.29
2022-08-30T13:47:32.468Z,17.60
2022-08-30T13:52:36.489Z,17.71
2022-08-30T13:57:56.130Z,17.73
2022-08-30T14:03:00.360Z,17.62
2022-08-30T14:08:05.045Z,17.56
2022-08-30T14:13:10.433Z,17.59
2022-08-30T14:18:17.823Z,17.56
2022-08-30T14:23:21.524Z,17.61
2022-08-30T14:28:26.370Z,17.89
2022-08-30T14:33:29.884Z,18.24
2022-08-30T14:38:32.994Z,18.20
2022-08-30T14:43:38.143Z,18.34
2022-08-30T14:48:42.603Z,18.74
2022-08-30T14:53:47.737Z,19.43
2022-08-30T14:58:53.181Z,20.59
2022-08-30T15:03:57.272Z,20.50
2022-08-30T15:09:00.644Z,19.92
2022-08-30T15:14:05.065Z,19.42
2022-08-30T15:19:10.992Z,18.97
2022-08-30T15:24:20.149Z,18.63
2022-08-30T15:29:31.927Z,18.35
2022-08-30T15:34:35.419Z,18.19
2022-08-30T15:39:38.526Z,18.05
2022-08-30T15:44:43.990Z,17.95
2022-08-30T15:49:53.955Z,17.84
2022-08-30T15:54:58.083Z,17.76
2022-08-30T16:00:01.631Z,17.64
2022-08-30T16:05:05.329Z,17.56
2022-08-30T16:10:09.992Z,17.51
2022-08-30T16:15:14.199Z,17.50
2022-08-30T16:20:17.767Z,17.48
2022-08-30T16:25:21.327Z,17.48
2022-08-30T16:30:27.096Z,17.53
2022-08-30T16:35:30.406Z,17.55
2022-08-30T16:40:34.389Z,17.53
2022-08-30T16:45:39.384Z,17.49
2022-08-30T16:50:45.716Z,17.50
2022-08-30T16:55:49.180Z,17.49
2022-08-30T17:00:53.428Z,17.46
2022-08-30T17:05:57.426Z,17.46
2022-08-30T17:11:00.852Z,17.44
2022-08-30T17:16:07.106Z,17.34
2022-08-30T17:21:10.756Z,17.56
2022-08-30T17:26:14.370Z,17.54
2022-08-30T17:31:18.255Z,17.30
2022-08-30T17:36:22.427Z,17.08
2022-08-30T17:41:25.836Z,16.89
2022-08-30T17:46:33.164Z,16.72
2022-08-30T17:51:41.164Z,16.59
2022-08-30T17:56:45.093Z,16.45
2022-08-30T18:01:48.861Z,16.28
2022-08-30T18:06:54.319Z,16.17
2022-08-30T18:11:57.888Z,16.06
2022-08-30T18:17:02.324Z,15.98
2022-08-30T18:22:05.945Z,15.92
2022-08-30T18:27:09.765Z,15.85
2022-08-30T18:32:14.613Z,15.73
2022-08-30T18:37:18.228Z,15.67
2022-08-30T18:42:21.747Z,15.64
2022-08-30T18:47:25.363Z,15.60
2022-08-30T18:52:28.743Z,15.58
2022-08-30T18:57:32.089Z,15.61
2022-08-30T19:02:35.659Z,15.65
2022-08-30T19:07:40.759Z,15.66
2022-08-30T19:12:44.274Z,15.68
2022-08-30T19:17:49.123Z,15.67
2022-08-30T19:23:10.343Z,15.64
2022-08-30T19:28:13.968Z,15.62
2022-08-30T19:33:17.715Z,15.60
2022-08-30T19:38:21.410Z,15.61
2022-08-30T19:43:25.130Z,15.63
2022-08-30T19:48:32.184Z,15.68
2022-08-30T19:53:37.482Z,15.71
2022-08-30T19:58:41.822Z,15.73
2022-08-30T20:03:46.565Z,15.78
2022-08-30T20:08:49.980Z,15.78
2022-08-30T20:13:57.287Z,15.82
2022-08-30T20:19:00.801Z,15.85
2022-08-30T20:24:04.795Z,15.89
2022-08-30T20:29:13.566Z,16.00
2022-08-30T20:34:17.092Z,16.02
2022-08-30T20:39:20.801Z,15.99
2022-08-30T20:44:24.319Z,15.95
2022-08-30T20:49:28.961Z,15.99
2022-08-30T20:54:32.376Z,16.01
2022-08-30T20:59:36.919Z,15.99
2022-08-30T21:04:40.530Z,15.95
2022-08-30T21:09:43.847Z,15.88
2022-08-30T21:14:47.460Z,15.80
2022-08-30T21:19:55.281Z,15.71
2022-08-30T21:24:58.693Z,15.60
2022-08-30T21:30:02.616Z,15.50
2022-08-30T21:35:24.766Z,15.42
2022-08-30T21:40:29.760Z,15.30
2022-08-30T21:45:33.381Z,15.19
2022-08-30T21:50:40.284Z,15.12
2022-08-30T21:55:43.903Z,15.02
2022-08-30T22:00:47.374Z,14.97
2022-08-30T22:05:53.955Z,14.90
2022-08-30T22:10:57.364Z,14.85
2022-08-30T22:16:00.778Z,14.78
2022-08-30T22:21:05.828Z,14.71
2022-08-30T22:26:13.759Z,14.69
2022-08-30T22:31:18.697Z,14.64
2022-08-30T22:36:32.656Z,14.57
2022-08-30T22:41:37.378Z,14.53
2022-08-30T22:46:40.821Z,14.54
2022-08-30T22:51:44.640Z,14.51
2022-08-30T22:56:48.052Z,14.47
2022-08-30T23:01:51.475Z,14.45
2022-08-30T23:06:54.876Z,14.40
2022-08-30T23:11:58.087Z,14.35
2022-08-30T23:17:01.397Z,14.30
2022-08-30T23:22:04.812Z,14.24
2022-08-30T23:27:26.556Z,14.21
2022-08-30T23:32:48.500Z,14.16
2022-08-30T23:38:10.653Z,14.12
2022-08-30T23:43:32.502Z,14.08
2022-08-30T23:48:54.449Z,14.03
2022-08-30T23:54:16.906Z,13.98
2022-08-30T23:59:38.787Z,13.98
